createdAt,value
2022-08-26T00:01:40.656Z,99.90
2022-08-26T00:04:07.964Z,99.90
2022-08-26T00:06:34.826Z,99.90
2022-08-26T00:09:02.000Z,99.90
2022-08-26T00:11:28.937Z,99.90
2022-08-26T00:13:57.178Z,99.90
2022-08-26T00:16:27.919Z,99.90
2022-08-26T00:18:55.578Z,99.90
2022-08-26T00:21:22.582Z,99.90
2022-08-26T00:23:50.481Z,99.90
2022-08-26T00:26:17.497Z,99.90
2022-08-26T00:28:44.667Z,99.90
2022-08-26T00:31:11.585Z,99.90
2022-08-26T00:33:39.590Z,99.90
2022-08-26T00:36:07.703Z,99.90
2022-08-26T00:38:37.844Z,99.90
2022-08-26T00:41:05.896Z,99.90
2022-08-26T00:43:46.069Z,99.90
2022-08-26T00:46:19.663Z,99.90
2022-08-26T00:48:50.073Z,99.90
2022-08-26T00:51:20.313Z,99.90
2022-08-26T00:53:54.598Z,99.90
2022-08-26T00:56:24.387Z,99.90
2022-08-26T00:58:51.423Z,99.90
2022-08-26T01:01:18.882Z,99.90
2022-08-26T01:03:50.362Z,99.90
2022-08-26T01:06:17.336Z,99.90
2022-08-26T01:08:44.209Z,99.90
2022-08-26T01:11:12.088Z,99.90
2022-08-26T01:13:39.384Z,99.90
2022-08-26T01:16:10.617Z,99.90
2022-08-26T01:18:40.526Z,99.90
2022-08-26T01:21:19.305Z,99.90
2022-08-26T01:23:50.619Z,99.90
2022-08-26T01:26:20.091Z,99.90
2022-08-26T01:28:50.709Z,99.90
2022-08-26T01:31:22.619Z,99.90
2022-08-26T01:34:14.901Z,99.90
2022-08-26T01:36:42.137Z,99.90
2022-08-26T01:39:10.022Z,99.90
2022-08-26T01:41:38.901Z,99.90
2022-08-26T01:44:09.728Z,99.90
2022-08-26T01:46:37.000Z,99.90
2022-08-26T01:49:06.535Z,99.90
2022-08-26T01:51:37.380Z,99.90
2022-08-26T01:54:06.350Z,99.90
2022-08-26T01:56:36.679Z,99.90
2022-08-26T01:59:08.121Z,99.90
2022-08-26T02:01:37.523Z,99.90
2022-08-26T02:04:17.654Z,99.90
2022-08-26T02:06:45.155Z,99.90
2022-08-26T02:09:13.118Z,99.90
2022-08-26T02:11:42.435Z,99.90
2022-08-26T02:14:13.245Z,99.90
2022-08-26T02:16:42.910Z,99.90
2022-08-26T02:19:16.964Z,99.90
2022-08-26T02:21:46.028Z,99.90
2022-08-26T02:24:27.495Z,99.90
2022-08-26T02:26:56.224Z,99.90
2022-08-26T02:29:41.570Z,99.90
2022-08-26T02:32:10.267Z,99.90
2022-08-26T02:34:37.414Z,99.90
2022-08-26T02:37:07.734Z,99.90
2022-08-26T02:39:36.614Z,99.90
2022-08-26T02:42:04.533Z,99.90
2022-08-26T02:44:32.361Z,99.90
2022-08-26T02:47:01.079Z,99.90
2022-08-26T02:49:28.466Z,99.90
2022-08-26T02:51:55.359Z,99.90
2022-08-26T02:54:22.644Z,99.90
2022-08-26T02:56:50.223Z,99.90
2022-08-26T02:59:17.578Z,99.90
2022-08-26T03:01:44.615Z,99.90
2022-08-26T03:04:12.600Z,99.90
2022-08-26T03:06:41.501Z,99.90
2022-08-26T03:09:09.240Z,99.90
2022-08-26T03:11:37.088Z,99.90
2022-08-26T03:14:04.431Z,99.90
2022-08-26T03:16:33.467Z,99.90
2022-08-26T03:19:02.271Z,99.90
2022-08-26T03:21:30.315Z,99.90
2022-08-26T03:23:58.748Z,99.90
2022-08-26T03:26:26.681Z,99.90
2022-08-26T03:28:55.141Z,99.90
2022-08-26T03:31:22.015Z,99.90
2022-08-26T03:33:51.519Z,99.90
2022-08-26T03:36:19.037Z,99.90
2022-08-26T03:38:46.387Z,99.90
2022-08-26T03:41:13.454Z,99.90
2022-08-26T03:43:41.030Z,99.90
2022-08-26T03:46:10.539Z,99.90
2022-08-26T03:48:38.313Z,99.90
2022-08-26T03:51:12.495Z,99.90
2022-08-26T03:53:39.340Z,99.90
2022-08-26T03:56:06.390Z,99.90
2022-08-26T03:58:33.559Z,99.90
2022-08-26T04:01:00.412Z,99.90
2022-08-26T04:03:27.663Z,99.90
2022-08-26T04:05:54.472Z,99.90
2022-08-26T04:08:21.278Z,99.90
2022-08-26T04:10:48.703Z,99.90
2022-08-26T04:13:17.975Z,99.90
2022-08-26T04:15:45.198Z,99.90
2022-08-26T04:18:12.016Z,99.90
2022-08-26T04:20:39.222Z,99.90
2022-08-26T04:23:06.171Z,99.90
2022-08-26T04:25:33.104Z,99.90
2022-08-26T04:27:59.942Z,99.90
2022-08-26T04:30:26.814Z,99.90
2022-08-26T04:32:53.645Z,99.90
2022-08-26T04:35:25.803Z,99.90
2022-08-26T04:37:53.129Z,99.90
2022-08-26T04:40:20.155Z,99.90
2022-08-26T04:42:47.190Z,99.90
2022-08-26T04:45:14.256Z,99.90
2022-08-26T04:47:41.086Z,99.90
2022-08-26T04:50:08.580Z,99.90
2022-08-26T04:52:37.879Z,99.90
2022-08-26T04:55:06.638Z,99.90
2022-08-26T04:57:35.546Z,99.90
2022-08-26T05:00:05.442Z,99.90
2022-08-26T05:02:32.218Z,99.90
2022-08-26T05:04:59.678Z,99.90
2022-08-26T05:07:26.681Z,99.90
2022-08-26T05:09:53.717Z,99.90
2022-08-26T05:12:21.380Z,99.90
2022-08-26T05:14:48.254Z,99.90
2022-08-26T05:17:15.163Z,99.90
2022-08-26T05:19:42.946Z,99.90
2022-08-26T05:22:09.940Z,99.90
2022-08-26T05:24:40.415Z,99.90
2022-08-26T05:27:11.429Z,99.90
2022-08-26T05:29:39.165Z,99.90
2022-08-26T05:32:06.461Z,99.90
2022-08-26T05:34:33.546Z,99.90
2022-08-26T05:37:00.406Z,98.40
2022-08-26T05:39:27.285Z,98.30
2022-08-26T05:41:54.219Z,97.80
2022-08-26T05:44:21.028Z,96.00
2022-08-26T05:46:49.466Z,94.70
2022-08-26T05:49:18.168Z,93.80
2022-08-26T05:51:47.713Z,91.50
2022-08-26T05:54:21.906Z,91.50
2022-08-26T05:56:52.435Z,90.80
2022-08-26T05:59:21.393Z,91.00
2022-08-26T06:01:51.603Z,90.80
2022-08-26T06:04:18.448Z,91.00
2022-08-26T06:06:47.225Z,89.90
2022-08-26T06:09:14.798Z,89.20
2022-08-26T06:11:45.042Z,91.00
2022-08-26T06:14:12.273Z,89.50
2022-08-26T06:16:41.856Z,89.80
2022-08-26T06:19:11.823Z,90.30
2022-08-26T06:21:40.912Z,90.20
2022-08-26T06:24:10.492Z,87.30
2022-08-26T06:26:38.859Z,84.10
2022-08-26T06:29:09.953Z,86.50
2022-08-26T06:31:37.255Z,85.60
2022-08-26T06:34:10.524Z,85.50
2022-08-26T06:36:40.222Z,85.60
2022-08-26T06:39:12.529Z,86.10
2022-08-26T06:41:43.396Z,83.90
2022-08-26T06:44:15.823Z,84.00
2022-08-26T06:46:44.180Z,87.50
2022-08-26T06:49:11.902Z,86.20
2022-08-26T06:51:40.469Z,88.30
2022-08-26T06:54:08.526Z,88.00
2022-08-26T06:56:40.191Z,88.20
2022-08-26T06:59:08.583Z,87.10
2022-08-26T07:01:42.905Z,85.80
2022-08-26T07:04:11.648Z,86.40
2022-08-26T07:06:40.845Z,83.80
2022-08-26T07:09:10.396Z,85.40
2022-08-26T07:11:38.932Z,83.80
2022-08-26T07:14:07.215Z,85.10
2022-08-26T07:16:35.775Z,85.20
2022-08-26T07:19:10.828Z,87.00
2022-08-26T07:21:39.462Z,84.00
2022-08-26T07:24:06.567Z,83.70
2022-08-26T07:26:33.489Z,83.80
2022-08-26T07:29:01.842Z,82.60
2022-08-26T07:31:35.992Z,83.70
2022-08-26T07:34:06.573Z,84.30
2022-08-26T07:36:33.576Z,81.10
2022-08-26T07:39:00.367Z,79.20
2022-08-26T07:41:27.609Z,77.20
2022-08-26T07:43:54.651Z,75.90
2022-08-26T07:46:27.432Z,77.70
2022-08-26T07:48:58.549Z,78.20
2022-08-26T07:51:26.567Z,76.00
2022-08-26T07:53:54.046Z,74.00
2022-08-26T07:56:22.339Z,76.70
2022-08-26T07:58:51.720Z,76.90
2022-08-26T08:01:23.898Z,73.50
2022-08-26T08:03:52.777Z,73.10
2022-08-26T08:06:21.800Z,71.40
2022-08-26T08:08:50.854Z,72.30
2022-08-26T08:11:20.096Z,71.30
2022-08-26T08:13:47.611Z,74.60
2022-08-26T08:16:16.125Z,71.90
2022-08-26T08:18:42.962Z,74.90
2022-08-26T08:21:25.076Z,73.70
2022-08-26T08:23:54.060Z,68.60
2022-08-26T08:26:22.342Z,70.30
2022-08-26T08:28:49.892Z,69.20
2022-08-26T08:34:08.014Z,70.40
2022-08-26T08:36:36.267Z,69.00
2022-08-26T08:39:03.634Z,70.60
2022-08-26T08:41:36.167Z,73.70
2022-08-26T08:44:04.181Z,72.90
2022-08-26T08:46:31.654Z,70.70
2022-08-26T08:48:59.556Z,75.10
2022-08-26T08:51:32.932Z,71.70
2022-08-26T08:54:01.049Z,71.50
2022-08-26T08:56:39.161Z,72.90
2022-08-26T08:59:15.805Z,72.40
2022-08-26T09:01:54.168Z,70.60
2022-08-26T09:04:56.111Z,70.70
2022-08-26T09:07:52.223Z,72.80
2022-08-26T09:10:46.091Z,70.80
2022-08-26T09:13:25.426Z,71.70
2022-08-26T09:16:05.806Z,71.40
2022-08-26T09:18:57.230Z,72.20
2022-08-26T09:21:25.514Z,71.70
2022-08-26T09:23:54.777Z,73.90
2022-08-26T09:26:40.964Z,69.50
2022-08-26T09:31:46.490Z,69.50
2022-08-26T09:34:28.092Z,71.20
2022-08-26T09:36:57.277Z,72.60
2022-08-26T09:39:24.084Z,72.90
2022-08-26T09:42:08.093Z,71.00
2022-08-26T09:44:58.168Z,68.70
2022-08-26T09:47:36.411Z,71.30
2022-08-26T09:50:23.768Z,72.30
2022-08-26T09:53:30.297Z,69.70
2022-08-26T09:56:25.483Z,68.30
2022-08-26T09:58:56.058Z,70.20
2022-08-26T10:01:34.250Z,70.70
2022-08-26T10:04:09.961Z,65.30
2022-08-26T10:07:02.397Z,68.20
2022-08-26T10:09:33.133Z,66.60
2022-08-26T10:12:15.371Z,68.40
2022-08-26T10:15:08.010Z,70.10
2022-08-26T10:18:04.157Z,66.60
2022-08-26T10:20:38.038Z,69.10
2022-08-26T10:23:20.404Z,68.20
2022-08-26T10:26:10.543Z,67.30
2022-08-26T10:28:49.888Z,66.10
2022-08-26T10:31:40.212Z,66.10
2022-08-26T10:34:08.392Z,65.80
2022-08-26T10:37:05.035Z,66.90
2022-08-26T10:39:34.388Z,67.30
2022-08-26T10:42:05.316Z,67.80
2022-08-26T10:44:37.399Z,62.30
2022-08-26T10:47:24.403Z,66.20
2022-08-26T10:49:56.467Z,65.30
2022-08-26T10:52:55.482Z,67.00
2022-08-26T10:55:35.000Z,65.40
2022-08-26T10:58:28.033Z,64.20
2022-08-26T11:01:10.438Z,62.80
2022-08-26T11:03:48.273Z,66.00
2022-08-26T11:06:19.700Z,65.10
2022-08-26T11:09:07.340Z,66.10
2022-08-26T11:11:40.292Z,65.10
2022-08-26T11:14:28.968Z,65.40
2022-08-26T11:16:57.626Z,62.90
2022-08-26T11:19:50.515Z,63.70
2022-08-26T11:22:32.760Z,63.10
2022-08-26T11:25:23.522Z,62.70
2022-08-26T11:27:56.885Z,63.10
2022-08-26T11:30:24.155Z,65.20
2022-08-26T11:32:54.656Z,64.80
2022-08-26T11:35:21.526Z,64.90
2022-08-26T11:37:50.708Z,62.70
2022-08-26T11:40:21.888Z,62.40
2022-08-26T11:42:59.818Z,62.30
2022-08-26T11:45:37.264Z,63.40
2022-08-26T11:48:21.109Z,65.00
2022-08-26T11:50:58.351Z,65.50
2022-08-26T11:53:26.797Z,64.20
2022-08-26T11:55:59.240Z,65.80
2022-08-26T11:58:27.686Z,63.20
2022-08-26T12:01:04.080Z,65.20
2022-08-26T12:03:49.462Z,62.00
2022-08-26T12:06:30.158Z,64.50
2022-08-26T12:08:58.597Z,62.80
2022-08-26T12:11:33.454Z,60.30
2022-08-26T12:14:07.224Z,61.30
2022-08-26T12:16:40.163Z,62.00
2022-08-26T12:19:28.590Z,58.50
2022-08-26T12:22:05.031Z,60.20
2022-08-26T12:24:32.131Z,62.30
2022-08-26T12:27:29.732Z,61.90
2022-08-26T12:30:14.017Z,62.10
2022-08-26T12:32:57.119Z,61.10
2022-08-26T12:35:26.129Z,60.60
2022-08-26T12:37:55.146Z,59.60
2022-08-26T12:40:31.340Z,59.00
2022-08-26T12:43:00.126Z,60.50
2022-08-26T12:45:30.486Z,60.40
2022-08-26T12:48:00.810Z,57.80
2022-08-26T12:50:31.965Z,58.50
2022-08-26T12:53:09.275Z,58.00
2022-08-26T12:55:48.581Z,58.10
2022-08-26T12:58:15.397Z,58.00
2022-08-26T13:00:43.815Z,59.80
2022-08-26T13:03:35.646Z,58.90
2022-08-26T13:06:20.995Z,54.80
2022-08-26T13:08:57.474Z,58.80
2022-08-26T13:11:31.567Z,56.50
2022-08-26T13:14:07.477Z,57.90
2022-08-26T13:16:34.950Z,58.30
2022-08-26T13:19:05.869Z,55.30
2022-08-26T13:21:49.249Z,57.40
2022-08-26T13:24:20.804Z,56.90
2022-08-26T13:26:49.359Z,55.90
2022-08-26T13:29:16.373Z,56.50
2022-08-26T13:31:44.308Z,57.00
2022-08-26T13:34:15.115Z,57.70
2022-08-26T13:36:42.011Z,56.00
2022-08-26T13:39:08.989Z,55.80
2022-08-26T13:41:35.908Z,55.60
2022-08-26T13:44:02.857Z,56.30
2022-08-26T13:46:30.278Z,56.50
2022-08-26T13:48:58.071Z,56.60
2022-08-26T13:51:26.652Z,57.90
2022-08-26T13:53:54.448Z,55.00
2022-08-26T13:56:22.447Z,55.70
2022-08-26T13:58:49.641Z,58.60
2022-08-26T14:01:17.635Z,56.40
2022-08-26T14:03:44.906Z,58.90
2022-08-26T14:06:12.369Z,57.40
2022-08-26T14:08:39.925Z,58.60
2022-08-26T14:11:07.084Z,56.70
2022-08-26T14:13:34.644Z,57.90
2022-08-26T14:16:04.435Z,57.10
2022-08-26T14:18:38.466Z,56.20
2022-08-26T14:21:11.422Z,56.20
2022-08-26T14:23:38.292Z,55.90
2022-08-26T14:26:05.394Z,56.40
2022-08-26T14:28:32.321Z,57.70
2022-08-26T14:30:59.224Z,59.10
2022-08-26T14:33:28.972Z,58.70
2022-08-26T14:35:55.823Z,59.50
2022-08-26T14:38:22.667Z,57.80
2022-08-26T14:40:49.554Z,59.10
2022-08-26T14:43:16.441Z,57.30
2022-08-26T14:45:44.763Z,58.00
2022-08-26T14:48:11.624Z,58.30
2022-08-26T14:50:38.770Z,58.40
2022-08-26T14:53:05.643Z,58.80
2022-08-26T14:55:35.266Z,58.80
2022-08-26T14:58:02.253Z,57.60
2022-08-26T15:00:29.472Z,58.00
2022-08-26T15:02:56.795Z,58.40
2022-08-26T15:05:24.242Z,59.00
2022-08-26T15:07:51.138Z,59.30
2022-08-26T15:10:18.707Z,59.60
2022-08-26T15:12:46.001Z,60.30
2022-08-26T15:15:15.447Z,60.50
2022-08-26T15:17:42.334Z,60.70
2022-08-26T15:20:12.229Z,62.00
2022-08-26T15:22:40.376Z,61.20
2022-08-26T15:25:08.292Z,62.40
2022-08-26T15:27:35.607Z,62.10
2022-08-26T15:30:05.266Z,62.80
2022-08-26T15:32:32.113Z,64.20
2022-08-26T15:34:58.970Z,61.20
2022-08-26T15:37:25.842Z,63.10
2022-08-26T15:39:52.750Z,63.10
2022-08-26T15:42:19.846Z,63.80
2022-08-26T15:44:46.743Z,63.90
2022-08-26T15:47:13.737Z,65.50
2022-08-26T15:49:40.952Z,66.10
2022-08-26T15:52:08.322Z,67.10
2022-08-26T15:54:35.235Z,65.50
2022-08-26T15:57:03.634Z,65.70
2022-08-26T15:59:30.908Z,66.50
2022-08-26T16:01:59.291Z,66.40
2022-08-26T16:04:26.768Z,68.80
2022-08-26T16:06:54.185Z,70.50
2022-08-26T16:09:24.351Z,70.60
2022-08-26T16:11:52.591Z,69.40
2022-08-26T16:14:19.744Z,70.80
2022-08-26T16:16:46.661Z,68.40
2022-08-26T16:19:13.481Z,69.80
2022-08-26T16:21:41.505Z,72.20
2022-08-26T16:24:08.858Z,72.80
2022-08-26T16:26:37.565Z,74.10
2022-08-26T16:29:09.001Z,73.10
2022-08-26T16:31:36.429Z,73.00
2022-08-26T16:34:03.584Z,72.70
2022-08-26T16:36:30.464Z,73.80
2022-08-26T16:38:57.593Z,75.40
2022-08-26T16:41:26.908Z,75.70
2022-08-26T16:43:54.551Z,76.90
2022-08-26T16:46:23.083Z,76.60
2022-08-26T16:48:49.959Z,76.30
2022-08-26T16:51:19.432Z,76.20
2022-08-26T16:53:46.310Z,75.80
2022-08-26T16:56:17.974Z,75.10
2022-08-26T16:58:45.071Z,75.80
2022-08-26T17:01:12.063Z,75.40
2022-08-26T17:03:39.009Z,77.10
2022-08-26T17:06:06.112Z,77.70
2022-08-26T17:08:33.092Z,78.20
2022-08-26T17:11:00.584Z,79.10
2022-08-26T17:13:35.302Z,79.90
2022-08-26T17:16:04.609Z,79.10
2022-08-26T17:18:31.666Z,79.30
2022-08-26T17:21:02.787Z,78.40
2022-08-26T17:23:29.871Z,79.10
2022-08-26T17:25:56.833Z,79.40
2022-08-26T17:28:23.722Z,81.50
2022-08-26T17:30:50.603Z,81.20
2022-08-26T17:33:22.092Z,82.70
2022-08-26T17:35:51.706Z,82.80
2022-08-26T17:38:19.145Z,83.50
2022-08-26T17:40:45.949Z,82.00
2022-08-26T17:43:12.954Z,83.40
2022-08-26T17:45:40.607Z,83.50
2022-08-26T17:48:08.090Z,85.00
2022-08-26T17:50:35.189Z,84.60
2022-08-26T17:53:02.100Z,84.00
2022-08-26T17:55:28.936Z,82.70
2022-08-26T17:57:55.991Z,80.40
2022-08-26T18:00:25.452Z,79.40
2022-08-26T18:02:53.794Z,80.60
2022-08-26T18:05:21.317Z,80.30
2022-08-26T18:07:48.193Z,81.00
2022-08-26T18:10:17.583Z,81.20
2022-08-26T18:12:44.872Z,79.80
2022-08-26T18:15:13.471Z,80.30
2022-08-26T18:17:40.600Z,79.60
2022-08-26T18:20:10.043Z,80.40
2022-08-26T18:22:37.013Z,80.70
2022-08-26T18:25:05.584Z,80.40
2022-08-26T18:27:32.766Z,80.80
2022-08-26T18:29:59.545Z,79.80
2022-08-26T18:32:26.403Z,79.20
2022-08-26T18:34:53.232Z,76.90
2022-08-26T18:37:20.110Z,75.70
2022-08-26T18:39:46.937Z,75.80
2022-08-26T18:42:13.759Z,77.20
2022-08-26T18:44:40.584Z,75.10
2022-08-26T18:47:07.432Z,75.50
2022-08-26T18:49:34.759Z,75.50
2022-08-26T18:52:01.717Z,74.90
2022-08-26T18:54:28.722Z,74.30
2022-08-26T18:56:56.029Z,73.10
2022-08-26T18:59:29.655Z,74.50
2022-08-26T19:01:57.953Z,74.50
2022-08-26T19:04:25.009Z,74.80
2022-08-26T19:06:53.671Z,75.50
2022-08-26T19:09:21.130Z,76.10
2022-08-26T19:11:49.614Z,75.10
2022-08-26T19:14:17.772Z,74.00
2022-08-26T19:16:48.110Z,73.60
2022-08-26T19:19:15.986Z,74.30
2022-08-26T19:21:43.167Z,74.80
2022-08-26T19:24:13.285Z,74.50
2022-08-26T19:26:40.388Z,76.70
2022-08-26T19:29:07.741Z,76.90
2022-08-26T19:31:35.352Z,76.70
2022-08-26T19:34:02.843Z,76.80
2022-08-26T19:36:30.093Z,78.40
2022-08-26T19:38:57.922Z,79.50
2022-08-26T19:41:36.674Z,80.20
2022-08-26T19:44:09.136Z,78.70
2022-08-26T19:46:36.666Z,79.30
2022-08-26T19:49:04.189Z,78.80
2022-08-26T19:51:33.823Z,78.90
2022-08-26T19:54:02.078Z,79.00
2022-08-26T19:56:30.209Z,78.30
2022-08-26T19:58:57.906Z,79.70
2022-08-26T20:01:25.380Z,79.20
2022-08-26T20:03:53.134Z,78.70
2022-08-26T20:06:20.443Z,78.00
2022-08-26T20:08:50.724Z,78.50
2022-08-26T20:11:19.326Z,79.20
2022-08-26T20:13:47.692Z,79.20
2022-08-26T20:16:16.181Z,79.30
2022-08-26T20:18:44.732Z,79.90
2022-08-26T20:21:13.042Z,79.80
2022-08-26T20:23:40.584Z,79.90
2022-08-26T20:26:08.151Z,80.10
2022-08-26T20:28:35.350Z,78.90
2022-08-26T20:31:03.303Z,78.40
2022-08-26T20:33:32.063Z,78.30
2022-08-26T20:36:13.227Z,79.00
2022-08-26T20:38:40.151Z,78.80
2022-08-26T20:41:07.264Z,78.30
2022-08-26T20:43:34.179Z,79.10
2022-08-26T20:46:01.347Z,78.40
2022-08-26T20:48:28.282Z,79.10
2022-08-26T20:50:59.746Z,78.90
2022-08-26T20:53:28.604Z,79.40
2022-08-26T20:56:00.331Z,79.00
2022-08-26T20:58:27.516Z,79.10
2022-08-26T21:00:54.635Z,79.40
2022-08-26T21:03:21.661Z,78.70
2022-08-26T21:05:49.298Z,79.60
2022-08-26T21:08:16.263Z,79.70
2022-08-26T21:10:43.321Z,78.90
2022-08-26T21:13:10.331Z,79.50
2022-08-26T21:15:37.451Z,79.10
2022-08-26T21:18:04.797Z,79.70
2022-08-26T21:20:32.610Z,79.50
2022-08-26T21:22:59.511Z,79.90
2022-08-26T21:25:26.646Z,79.90
2022-08-26T21:27:53.479Z,79.80
2022-08-26T21:30:20.471Z,79.90
2022-08-26T21:32:47.382Z,79.60
2022-08-26T21:35:14.336Z,80.30
2022-08-26T21:37:41.256Z,80.70
2022-08-26T21:40:08.803Z,78.90
2022-08-26T21:42:36.012Z,79.00
2022-08-26T21:45:04.770Z,80.00
2022-08-26T21:47:31.888Z,80.40
2022-08-26T21:49:59.207Z,80.80
2022-08-26T21:52:26.280Z,80.90
2022-08-26T21:54:58.015Z,80.80
2022-08-26T21:57:26.099Z,80.70
2022-08-26T21:59:53.397Z,80.30
2022-08-26T22:02:21.102Z,80.00
2022-08-26T22:04:48.976Z,80.20
2022-08-26T22:07:17.663Z,80.90
2022-08-26T22:09:44.666Z,80.60
2022-08-26T22:12:12.572Z,81.50
2022-08-26T22:14:39.407Z,80.60
2022-08-26T22:17:06.509Z,81.70
2022-08-26T22:19:33.982Z,81.70
2022-08-26T22:22:01.130Z,80.70
2022-08-26T22:24:28.094Z,80.40
2022-08-26T22:26:55.514Z,81.10
2022-08-26T22:29:22.866Z,81.00
2022-08-26T22:31:49.840Z,81.90
2022-08-26T22:34:17.572Z,82.50
2022-08-26T22:36:47.407Z,83.00
2022-08-26T22:39:17.218Z,82.50
2022-08-26T22:41:45.077Z,83.10
2022-08-26T22:44:12.941Z,83.20
2022-08-26T22:46:40.883Z,83.20
2022-08-26T22:49:09.767Z,83.30
2022-08-26T22:51:36.793Z,82.80
2022-08-26T22:54:04.226Z,83.00
2022-08-26T22:56:31.213Z,83.20
2022-08-26T22:58:58.059Z,84.00
2022-08-26T23:01:24.900Z,82.80
2022-08-26T23:03:52.072Z,83.70
2022-08-26T23:06:18.915Z,83.90
2022-08-26T23:08:45.895Z,84.30
2022-08-26T23:11:14.123Z,84.40
2022-08-26T23:13:41.359Z,84.00
2022-08-26T23:16:11.379Z,84.80
2022-08-26T23:18:39.995Z,84.80
2022-08-26T23:21:07.653Z,85.70
2022-08-26T23:23:34.706Z,86.60
2022-08-26T23:26:05.956Z,86.10
2022-08-26T23:28:34.286Z,85.70
2022-08-26T23:31:01.259Z,84.60
2022-08-26T23:33:28.609Z,83.30
2022-08-26T23:35:55.633Z,84.10
2022-08-26T23:38:22.477Z,84.30
2022-08-26T23:40:49.436Z,85.00
2022-08-26T23:43:16.333Z,84.80
2022-08-26T23:45:43.201Z,83.50
2022-08-26T23:48:10.266Z,83.70
2022-08-26T23:50:37.252Z,83.90
2022-08-26T23:53:04.091Z,83.70
2022-08-26T23:55:34.485Z,84.50
2022-08-26T23:58:01.718Z,85.30
